sensor_id;sensor_type;location;lat;lon;timestamp;temperature;humidity
77052;SHT30;65980;44.898;8.602;2023-06-14T00:01:21;20.52;81.67
77052;SHT30;65980;44.898;8.602;2023-06-14T00:04:25;20.42;82.08
77052;SHT30;65980;44.898;8.602;2023-06-14T00:07:33;20.35;82.76
77052;SHT30;65980;44.898;8.602;2023-06-14T00:10:38;20.37;82.63
77052;SHT30;65980;44.898;8.602;2023-06-14T00:13:44;20.38;82.39
77052;SHT30;65980;44.898;8.602;2023-06-14T00:16:49;20.40;82.75
77052;SHT30;65980;44.898;8.602;2023-06-14T00:19:53;20.41;82.38
77052;SHT30;65980;44.898;8.602;2023-06-14T00:22:58;20.45;81.82
77052;SHT30;65980;44.898;8.602;2023-06-14T00:26:01;20.17;82.73
77052;SHT30;65980;44.898;8.602;2023-06-14T00:29:06;20.12;83.01
77052;SHT30;65980;44.898;8.602;2023-06-14T00:32:09;20.23;82.49
77052;SHT30;65980;44.898;8.602;2023-06-14T00:35:13;20.17;82.34
77052;SHT30;65980;44.898;8.602;2023-06-14T00:38:18;20.18;82.26
77052;SHT30;65980;44.898;8.602;2023-06-14T00:41:22;20.03;82.25
77052;SHT30;65980;44.898;8.602;2023-06-14T00:44:25;19.89;82.92
77052;SHT30;65980;44.898;8.602;2023-06-14T00:47:29;19.96;83.16
77052;SHT30;65980;44.898;8.602;2023-06-14T00:50:33;19.96;82.95
77052;SHT30;65980;44.898;8.602;2023-06-14T00:53:38;20.00;83.27
77052;SHT30;65980;44.898;8.602;2023-06-14T00:56:44;20.04;83.05
77052;SHT30;65980;44.898;8.602;2023-06-14T00:59:50;20.07;82.62
77052;SHT30;65980;44.898;8.602;2023-06-14T01:02:53;20.20;82.31
77052;SHT30;65980;44.898;8.602;2023-06-14T01:06:00;20.07;82.69
77052;SHT30;65980;44.898;8.602;2023-06-14T01:09:18;20.17;82.22
77052;SHT30;65980;44.898;8.602;2023-06-14T01:16:02;20.20;82.22
77052;SHT30;65980;44.898;8.602;2023-06-14T01:19:07;20.14;82.09
77052;SHT30;65980;44.898;8.602;2023-06-14T01:22:12;20.09;82.52
77052;SHT30;65980;44.898;8.602;2023-06-14T01:25:16;20.04;82.55
77052;SHT30;65980;44.898;8.602;2023-06-14T01:28:21;20.10;82.42
77052;SHT30;65980;44.898;8.602;2023-06-14T01:31:25;19.82;82.79
77052;SHT30;65980;44.898;8.602;2023-06-14T01:34:30;19.89;82.45
77052;SHT30;65980;44.898;8.602;2023-06-14T01:37:35;19.83;82.64
77052;SHT30;65980;44.898;8.602;2023-06-14T01:40:43;19.97;82.46
77052;SHT30;65980;44.898;8.602;2023-06-14T01:43:48;19.98;82.64
77052;SHT30;65980;44.898;8.602;2023-06-14T01:46:53;19.97;82.76
77052;SHT30;65980;44.898;8.602;2023-06-14T01:50:01;19.97;83.05
77052;SHT30;65980;44.898;8.602;2023-06-14T01:53:09;20.07;82.74
77052;SHT30;65980;44.898;8.602;2023-06-14T01:56:14;20.09;82.58
77052;SHT30;65980;44.898;8.602;2023-06-14T01:59:18;19.98;83.33
77052;SHT30;65980;44.898;8.602;2023-06-14T02:02:23;20.16;82.35
77052;SHT30;65980;44.898;8.602;2023-06-14T02:05:28;20.17;82.63
77052;SHT30;65980;44.898;8.602;2023-06-14T02:08:32;20.16;82.54
77052;SHT30;65980;44.898;8.602;2023-06-14T02:11:38;20.17;82.67
77052;SHT30;65980;44.898;8.602;2023-06-14T02:14:43;20.21;82.49
77052;SHT30;65980;44.898;8.602;2023-06-14T02:17:49;20.07;83.03
77052;SHT30;65980;44.898;8.602;2023-06-14T02:20:55;20.07;82.95
77052;SHT30;65980;44.898;8.602;2023-06-14T02:24:00;20.10;83.10
77052;SHT30;65980;44.898;8.602;2023-06-14T02:27:05;19.90;83.60
77052;SHT30;65980;44.898;8.602;2023-06-14T02:30:11;19.58;85.33
77052;SHT30;65980;44.898;8.602;2023-06-14T02:33:15;19.59;85.33
77052;SHT30;65980;44.898;8.602;2023-06-14T02:36:20;19.73;84.89
77052;SHT30;65980;44.898;8.602;2023-06-14T02:39:24;19.80;85.03
77052;SHT30;65980;44.898;8.602;2023-06-14T02:42:28;19.98;83.34
77052;SHT30;65980;44.898;8.602;2023-06-14T02:45:32;19.97;83.05
77052;SHT30;65980;44.898;8.602;2023-06-14T02:48:36;19.89;83.29
77052;SHT30;65980;44.898;8.602;2023-06-14T02:51:40;19.96;83.35
77052;SHT30;65980;44.898;8.602;2023-06-14T02:54:44;19.87;83.29
77052;SHT30;65980;44.898;8.602;2023-06-14T02:57:50;19.87;83.65
77052;SHT30;65980;44.898;8.602;2023-06-14T03:00:55;19.83;83.37
77052;SHT30;65980;44.898;8.602;2023-06-14T03:04:03;19.76;83.06
77052;SHT30;65980;44.898;8.602;2023-06-14T03:07:09;19.73;83.86
77052;SHT30;65980;44.898;8.602;2023-06-14T03:10:16;19.70;84.02
77052;SHT30;65980;44.898;8.602;2023-06-14T03:13:22;19.82;83.58
77052;SHT30;65980;44.898;8.602;2023-06-14T03:16:28;19.70;84.09
77052;SHT30;65980;44.898;8.602;2023-06-14T03:19:34;19.78;83.83
77052;SHT30;65980;44.898;8.602;2023-06-14T03:22:40;19.83;83.84
77052;SHT30;65980;44.898;8.602;2023-06-14T03:25:44;19.89;83.80
77052;SHT30;65980;44.898;8.602;2023-06-14T03:28:50;19.93;83.54
77052;SHT30;65980;44.898;8.602;2023-06-14T03:31:56;19.96;83.29
77052;SHT30;65980;44.898;8.602;2023-06-14T03:35:00;19.93;83.21
77052;SHT30;65980;44.898;8.602;2023-06-14T03:38:04;20.06;82.84
77052;SHT30;65980;44.898;8.602;2023-06-14T03:41:09;19.97;82.51
77052;SHT30;65980;44.898;8.602;2023-06-14T03:44:15;19.98;82.67
77052;SHT30;65980;44.898;8.602;2023-06-14T03:47:20;19.87;83.19
77052;SHT30;65980;44.898;8.602;2023-06-14T03:50:24;19.87;83.43
77052;SHT30;65980;44.898;8.602;2023-06-14T03:53:29;19.87;83.39
77052;SHT30;65980;44.898;8.602;2023-06-14T03:56:33;19.90;83.38
77052;SHT30;65980;44.898;8.602;2023-06-14T03:59:38;19.94;83.17
77052;SHT30;65980;44.898;8.602;2023-06-14T04:02:42;19.97;82.63
77052;SHT30;65980;44.898;8.602;2023-06-14T04:05:48;19.92;82.73
77052;SHT30;65980;44.898;8.602;2023-06-14T04:08:53;19.94;82.37
77052;SHT30;65980;44.898;8.602;2023-06-14T04:11:57;19.82;82.60
77052;SHT30;65980;44.898;8.602;2023-06-14T04:15:02;19.73;83.17
77052;SHT30;65980;44.898;8.602;2023-06-14T04:18:09;19.62;83.47
77052;SHT30;65980;44.898;8.602;2023-06-14T04:21:13;19.76;83.34
77052;SHT30;65980;44.898;8.602;2023-06-14T04:24:17;19.89;82.79
77052;SHT30;65980;44.898;8.602;2023-06-14T04:27:25;19.66;83.49
77052;SHT30;65980;44.898;8.602;2023-06-14T04:30:29;19.38;84.97
77052;SHT30;65980;44.898;8.602;2023-06-14T04:33:35;19.70;83.66
77052;SHT30;65980;44.898;8.602;2023-06-14T04:36:48;19.80;83.23
77052;SHT30;65980;44.898;8.602;2023-06-14T04:39:54;19.87;83.07
77052;SHT30;65980;44.898;8.602;2023-06-14T04:43:00;19.65;83.42
77052;SHT30;65980;44.898;8.602;2023-06-14T04:46:05;19.68;83.61
77052;SHT30;65980;44.898;8.602;2023-06-14T04:49:10;19.94;83.00
77052;SHT30;65980;44.898;8.602;2023-06-14T04:52:18;19.87;83.38
77052;SHT30;65980;44.898;8.602;2023-06-14T04:55:25;19.98;83.01
77052;SHT30;65980;44.898;8.602;2023-06-14T04:58:31;20.16;82.38
77052;SHT30;65980;44.898;8.602;2023-06-14T05:01:36;20.14;82.37
77052;SHT30;65980;44.898;8.602;2023-06-14T05:04:41;20.21;81.88
77052;SHT30;65980;44.898;8.602;2023-06-14T05:07:45;20.21;81.82
77052;SHT30;65980;44.898;8.602;2023-06-14T05:11:11;20.16;81.93
77052;SHT30;65980;44.898;8.602;2023-06-14T05:14:21;19.75;84.07
77052;SHT30;65980;44.898;8.602;2023-06-14T05:17:28;19.72;83.94
77052;SHT30;65980;44.898;8.602;2023-06-14T05:20:32;19.80;83.72
77052;SHT30;65980;44.898;8.602;2023-06-14T05:23:37;19.94;83.51
77052;SHT30;65980;44.898;8.602;2023-06-14T05:26:41;20.17;82.64
77052;SHT30;65980;44.898;8.602;2023-06-14T05:30:14;20.23;81.75
77052;SHT30;65980;44.898;8.602;2023-06-14T05:33:25;20.27;81.59
77052;SHT30;65980;44.898;8.602;2023-06-14T05:36:38;20.31;82.09
77052;SHT30;65980;44.898;8.602;2023-06-14T05:39:42;19.97;83.69
77052;SHT30;65980;44.898;8.602;2023-06-14T05:43:04;19.65;84.94
77052;SHT30;65980;44.898;8.602;2023-06-14T05:46:56;20.01;83.90
77052;SHT30;65980;44.898;8.602;2023-06-14T05:50:37;20.24;83.12
77052;SHT30;65980;44.898;8.602;2023-06-14T05:54:03;19.96;80.85
77052;SHT30;65980;44.898;8.602;2023-06-14T05:57:13;20.10;79.93
77052;SHT30;65980;44.898;8.602;2023-06-14T06:03:38;20.44;79.40
77052;SHT30;65980;44.898;8.602;2023-06-14T06:06:42;20.21;80.97
77052;SHT30;65980;44.898;8.602;2023-06-14T06:09:46;20.12;80.89
77052;SHT30;65980;44.898;8.602;2023-06-14T06:12:50;20.25;80.91
77052;SHT30;65980;44.898;8.602;2023-06-14T06:15:55;20.06;81.79
77052;SHT30;65980;44.898;8.602;2023-06-14T06:19:00;20.23;81.51
77052;SHT30;65980;44.898;8.602;2023-06-14T06:22:04;20.37;81.34
77052;SHT30;65980;44.898;8.602;2023-06-14T06:25:19;20.12;82.83
77052;SHT30;65980;44.898;8.602;2023-06-14T06:28:32;20.30;81.88
77052;SHT30;65980;44.898;8.602;2023-06-14T06:44:57;20.64;82.32
77052;SHT30;65980;44.898;8.602;2023-06-14T06:51:42;20.72;81.56
77052;SHT30;65980;44.898;8.602;2023-06-14T06:54:48;20.55;82.20
77052;SHT30;65980;44.898;8.602;2023-06-14T06:57:54;20.58;81.68
77052;SHT30;65980;44.898;8.602;2023-06-14T07:00:58;20.44;82.52
77052;SHT30;65980;44.898;8.602;2023-06-14T07:04:05;20.09;83.16
77052;SHT30;65980;44.898;8.602;2023-06-14T07:07:09;20.42;82.56
77052;SHT30;65980;44.898;8.602;2023-06-14T07:10:13;20.51;81.75
77052;SHT30;65980;44.898;8.602;2023-06-14T07:13:17;20.45;81.70
77052;SHT30;65980;44.898;8.602;2023-06-14T07:16:21;20.41;81.97
77052;SHT30;65980;44.898;8.602;2023-06-14T07:19:27;20.48;81.24
77052;SHT30;65980;44.898;8.602;2023-06-14T07:22:34;20.64;80.94
77052;SHT30;65980;44.898;8.602;2023-06-14T07:25:38;20.61;80.56
77052;SHT30;65980;44.898;8.602;2023-06-14T07:28:42;20.69;80.48
77052;SHT30;65980;44.898;8.602;2023-06-14T07:31:55;20.69;80.74
77052;SHT30;65980;44.898;8.602;2023-06-14T07:38:37;20.69;80.01
77052;SHT30;65980;44.898;8.602;2023-06-14T07:41:50;20.76;78.46
77052;SHT30;65980;44.898;8.602;2023-06-14T07:44:54;20.82;78.54
77052;SHT30;65980;44.898;8.602;2023-06-14T07:47:59;20.97;78.59
77052;SHT30;65980;44.898;8.602;2023-06-14T07:51:09;21.44;77.36
77052;SHT30;65980;44.898;8.602;2023-06-14T07:54:14;21.23;76.38
77052;SHT30;65980;44.898;8.602;2023-06-14T07:57:18;21.07;76.67
77052;SHT30;65980;44.898;8.602;2023-06-14T08:00:24;21.20;76.52
77052;SHT30;65980;44.898;8.602;2023-06-14T08:03:29;21.61;76.30
77052;SHT30;65980;44.898;8.602;2023-06-14T08:06:34;21.74;74.81
77052;SHT30;65980;44.898;8.602;2023-06-14T08:09:38;21.85;74.97
77052;SHT30;65980;44.898;8.602;2023-06-14T08:12:43;21.62;75.86
77052;SHT30;65980;44.898;8.602;2023-06-14T08:15:47;21.38;75.23
77052;SHT30;65980;44.898;8.602;2023-06-14T08:18:51;21.27;75.39
77052;SHT30;65980;44.898;8.602;2023-06-14T08:21:55;21.49;75.07
77052;SHT30;65980;44.898;8.602;2023-06-14T08:25:00;21.90;74.17
77052;SHT30;65980;44.898;8.602;2023-06-14T08:28:05;21.68;73.26
77052;SHT30;65980;44.898;8.602;2023-06-14T08:31:12;22.02;73.21
77052;SHT30;65980;44.898;8.602;2023-06-14T08:34:43;22.03;72.78
77052;SHT30;65980;44.898;8.602;2023-06-14T08:37:47;22.06;72.60
77052;SHT30;65980;44.898;8.602;2023-06-14T08:40:51;21.99;72.68
77052;SHT30;65980;44.898;8.602;2023-06-14T08:43:56;21.88;72.54
77052;SHT30;65980;44.898;8.602;2023-06-14T08:47:00;22.17;72.62
77052;SHT30;65980;44.898;8.602;2023-06-14T08:50:04;22.33;71.93
77052;SHT30;65980;44.898;8.602;2023-06-14T08:53:10;22.66;71.00
77052;SHT30;65980;44.898;8.602;2023-06-14T08:56:16;22.72;69.69
77052;SHT30;65980;44.898;8.602;2023-06-14T08:59:21;23.20;68.61
77052;SHT30;65980;44.898;8.602;2023-06-14T09:02:25;23.07;68.93
77052;SHT30;65980;44.898;8.602;2023-06-14T09:05:29;22.71;70.31
77052;SHT30;65980;44.898;8.602;2023-06-14T09:08:34;22.86;70.34
77052;SHT30;65980;44.898;8.602;2023-06-14T09:11:41;22.64;70.21
77052;SHT30;65980;44.898;8.602;2023-06-14T09:14:46;23.44;68.55
77052;SHT30;65980;44.898;8.602;2023-06-14T09:17:51;23.65;68.21
77052;SHT30;65980;44.898;8.602;2023-06-14T09:20:55;23.93;66.63
77052;SHT30;65980;44.898;8.602;2023-06-14T09:23:59;23.79;66.50
77052;SHT30;65980;44.898;8.602;2023-06-14T09:27:04;23.28;68.42
77052;SHT30;65980;44.898;8.602;2023-06-14T09:30:11;23.20;68.88
77052;SHT30;65980;44.898;8.602;2023-06-14T09:33:16;23.48;67.67
77052;SHT30;65980;44.898;8.602;2023-06-14T09:36:21;23.66;67.09
77052;SHT30;65980;44.898;8.602;2023-06-14T09:39:29;23.54;66.44
77052;SHT30;65980;44.898;8.602;2023-06-14T09:42:33;23.81;66.54
77052;SHT30;65980;44.898;8.602;2023-06-14T09:45:39;23.71;67.60
77052;SHT30;65980;44.898;8.602;2023-06-14T09:48:44;23.50;67.82
77052;SHT30;65980;44.898;8.602;2023-06-14T09:51:49;23.17;67.82
77052;SHT30;65980;44.898;8.602;2023-06-14T09:54:54;22.89;69.24
77052;SHT30;65980;44.898;8.602;2023-06-14T09:58:00;23.30;68.20
77052;SHT30;65980;44.898;8.602;2023-06-14T10:01:05;23.34;68.78
77052;SHT30;65980;44.898;8.602;2023-06-14T10:04:12;23.26;69.00
77052;SHT30;65980;44.898;8.602;2023-06-14T10:07:19;23.30;67.75
77052;SHT30;65980;44.898;8.602;2023-06-14T10:10:23;23.11;68.87
77052;SHT30;65980;44.898;8.602;2023-06-14T10:13:28;23.36;68.92
77052;SHT30;65980;44.898;8.602;2023-06-14T10:23:22;23.72;66.75
77052;SHT30;65980;44.898;8.602;2023-06-14T10:26:27;23.96;66.56
77052;SHT30;65980;44.898;8.602;2023-06-14T10:29:31;24.05;65.71
77052;SHT30;65980;44.898;8.602;2023-06-14T10:32:41;23.20;67.73
77052;SHT30;65980;44.898;8.602;2023-06-14T10:39:17;23.37;67.32
77052;SHT30;65980;44.898;8.602;2023-06-14T10:42:21;23.66;67.17
77052;SHT30;65980;44.898;8.602;2023-06-14T10:45:26;23.30;68.00
77052;SHT30;65980;44.898;8.602;2023-06-14T10:48:29;23.53;67.12
77052;SHT30;65980;44.898;8.602;2023-06-14T10:51:41;23.55;66.49
77052;SHT30;65980;44.898;8.602;2023-06-14T10:55:06;23.40;67.04
77052;SHT30;65980;44.898;8.602;2023-06-14T10:58:13;23.53;67.72
77052;SHT30;65980;44.898;8.602;2023-06-14T11:01:18;23.64;66.67
77052;SHT30;65980;44.898;8.602;2023-06-14T11:04:40;22.65;68.14
77052;SHT30;65980;44.898;8.602;2023-06-14T11:10:59;22.89;68.04
77052;SHT30;65980;44.898;8.602;2023-06-14T11:14:09;23.21;68.03
77052;SHT30;65980;44.898;8.602;2023-06-14T11:17:39;23.03;68.36
77052;SHT30;65980;44.898;8.602;2023-06-14T11:20:45;23.11;67.72
77052;SHT30;65980;44.898;8.602;2023-06-14T11:24:09;23.14;68.68
77052;SHT30;65980;44.898;8.602;2023-06-14T11:27:14;23.30;67.03
77052;SHT30;65980;44.898;8.602;2023-06-14T11:30:18;23.10;67.99
77052;SHT30;65980;44.898;8.602;2023-06-14T11:33:22;23.34;66.97
77052;SHT30;65980;44.898;8.602;2023-06-14T11:36:28;23.34;67.48
77052;SHT30;65980;44.898;8.602;2023-06-14T11:39:33;23.24;67.77
77052;SHT30;65980;44.898;8.602;2023-06-14T11:42:39;23.27;67.73
77052;SHT30;65980;44.898;8.602;2023-06-14T11:45:42;23.55;66.81
77052;SHT30;65980;44.898;8.602;2023-06-14T11:48:49;23.46;67.04
77052;SHT30;65980;44.898;8.602;2023-06-14T11:51:54;23.58;67.60
77052;SHT30;65980;44.898;8.602;2023-06-14T11:54:58;23.76;67.15
77052;SHT30;65980;44.898;8.602;2023-06-14T12:02:02;23.95;67.53
77052;SHT30;65980;44.898;8.602;2023-06-14T12:05:08;24.37;65.63
77052;SHT30;65980;44.898;8.602;2023-06-14T12:08:14;24.53;65.41
77052;SHT30;65980;44.898;8.602;2023-06-14T12:11:20;24.79;63.22
77052;SHT30;65980;44.898;8.602;2023-06-14T12:14:28;24.33;64.50
77052;SHT30;65980;44.898;8.602;2023-06-14T12:17:34;24.58;63.34
77052;SHT30;65980;44.898;8.602;2023-06-14T12:20:39;24.76;63.46
77052;SHT30;65980;44.898;8.602;2023-06-14T12:26:48;25.05;62.46
77052;SHT30;65980;44.898;8.602;2023-06-14T12:29:58;24.82;60.91
77052;SHT30;65980;44.898;8.602;2023-06-14T12:33:03;24.31;62.90
77052;SHT30;65980;44.898;8.602;2023-06-14T12:36:08;24.50;63.81
77052;SHT30;65980;44.898;8.602;2023-06-14T12:39:13;24.81;63.91
77052;SHT30;65980;44.898;8.602;2023-06-14T12:42:16;24.93;61.54
77052;SHT30;65980;44.898;8.602;2023-06-14T12:45:21;24.69;62.26
77052;SHT30;65980;44.898;8.602;2023-06-14T12:48:26;25.05;60.88
77052;SHT30;65980;44.898;8.602;2023-06-14T12:51:38;25.12;59.51
77052;SHT30;65980;44.898;8.602;2023-06-14T12:54:43;25.38;59.98
77052;SHT30;65980;44.898;8.602;2023-06-14T12:57:47;25.43;59.44
77052;SHT30;65980;44.898;8.602;2023-06-14T13:00:53;25.20;57.73
77052;SHT30;65980;44.898;8.602;2023-06-14T13:03:58;25.38;57.72
77052;SHT30;65980;44.898;8.602;2023-06-14T13:07:01;25.40;56.85
77052;SHT30;65980;44.898;8.602;2023-06-14T13:10:06;25.60;57.15
77052;SHT30;65980;44.898;8.602;2023-06-14T13:13:11;25.72;56.69
77052;SHT30;65980;44.898;8.602;2023-06-14T13:16:17;25.77;58.08
77052;SHT30;65980;44.898;8.602;2023-06-14T13:19:21;25.72;57.10
77052;SHT30;65980;44.898;8.602;2023-06-14T13:22:25;25.75;58.23
77052;SHT30;65980;44.898;8.602;2023-06-14T13:25:29;25.82;57.26
77052;SHT30;65980;44.898;8.602;2023-06-14T13:28:33;25.06;59.78
77052;SHT30;65980;44.898;8.602;2023-06-14T13:31:39;24.82;60.19
77052;SHT30;65980;44.898;8.602;2023-06-14T13:34:44;24.83;59.59
77052;SHT30;65980;44.898;8.602;2023-06-14T13:37:49;24.72;61.95
77052;SHT30;65980;44.898;8.602;2023-06-14T13:40:53;24.79;61.77
77052;SHT30;65980;44.898;8.602;2023-06-14T13:43:57;24.63;61.67
77052;SHT30;65980;44.898;8.602;2023-06-14T13:47:02;24.60;62.13
77052;SHT30;65980;44.898;8.602;2023-06-14T13:50:16;24.75;63.45
77052;SHT30;65980;44.898;8.602;2023-06-14T13:53:24;24.83;61.09
77052;SHT30;65980;44.898;8.602;2023-06-14T13:56:30;25.12;61.85
77052;SHT30;65980;44.898;8.602;2023-06-14T13:59:34;25.27;60.28
77052;SHT30;65980;44.898;8.602;2023-06-14T14:02:39;25.60;60.18
77052;SHT30;65980;44.898;8.602;2023-06-14T14:05:47;25.74;57.82
77052;SHT30;65980;44.898;8.602;2023-06-14T14:08:51;25.58;58.50
77052;SHT30;65980;44.898;8.602;2023-06-14T14:11:56;25.20;58.37
77052;SHT30;65980;44.898;8.602;2023-06-14T14:15:00;25.65;59.80
77052;SHT30;65980;44.898;8.602;2023-06-14T14:18:05;25.85;58.29
77052;SHT30;65980;44.898;8.602;2023-06-14T14:21:11;25.82;60.10
77052;SHT30;65980;44.898;8.602;2023-06-14T14:24:24;25.55;58.48
77052;SHT30;65980;44.898;8.602;2023-06-14T14:27:29;25.37;58.76
77052;SHT30;65980;44.898;8.602;2023-06-14T14:30:36;25.30;58.83
77052;SHT30;65980;44.898;8.602;2023-06-14T14:37:18;26.41;56.92
77052;SHT30;65980;44.898;8.602;2023-06-14T14:40:29;26.39;56.44
77052;SHT30;65980;44.898;8.602;2023-06-14T14:44:02;26.60;56.56
77052;SHT30;65980;44.898;8.602;2023-06-14T14:51:09;26.48;56.93
77052;SHT30;65980;44.898;8.602;2023-06-14T14:54:15;26.71;58.05
77052;SHT30;65980;44.898;8.602;2023-06-14T14:57:31;26.32;56.92
77052;SHT30;65980;44.898;8.602;2023-06-14T15:00:39;26.17;56.92
77052;SHT30;65980;44.898;8.602;2023-06-14T15:03:50;26.47;56.66
77052;SHT30;65980;44.898;8.602;2023-06-14T15:06:54;26.68;55.73
77052;SHT30;65980;44.898;8.602;2023-06-14T15:10:01;26.92;54.28
77052;SHT30;65980;44.898;8.602;2023-06-14T15:13:17;26.78;53.76
77052;SHT30;65980;44.898;8.602;2023-06-14T15:16:40;26.77;55.78
77052;SHT30;65980;44.898;8.602;2023-06-14T15:19:50;26.54;55.11
77052;SHT30;65980;44.898;8.602;2023-06-14T15:30:33;26.60;55.22
77052;SHT30;65980;44.898;8.602;2023-06-14T15:33:36;26.27;56.01
77052;SHT30;65980;44.898;8.602;2023-06-14T15:36:49;26.33;56.50
77052;SHT30;65980;44.898;8.602;2023-06-14T15:39:53;26.61;53.32
77052;SHT30;65980;44.898;8.602;2023-06-14T15:43:11;26.94;55.06
77052;SHT30;65980;44.898;8.602;2023-06-14T15:46:16;26.64;54.20
77052;SHT30;65980;44.898;8.602;2023-06-14T15:52:56;26.77;53.76
77052;SHT30;65980;44.898;8.602;2023-06-14T15:56:00;26.60;54.91
77052;SHT30;65980;44.898;8.602;2023-06-14T16:02:58;27.33;54.83
77052;SHT30;65980;44.898;8.602;2023-06-14T16:06:06;27.02;54.92
77052;SHT30;65980;44.898;8.602;2023-06-14T16:12:41;26.87;54.83
77052;SHT30;65980;44.898;8.602;2023-06-14T16:16:35;26.68;54.55
77052;SHT30;65980;44.898;8.602;2023-06-14T16:19:40;26.58;55.09
77052;SHT30;65980;44.898;8.602;2023-06-14T16:22:51;26.70;54.56
77052;SHT30;65980;44.898;8.602;2023-06-14T16:30:46;27.67;52.38
77052;SHT30;65980;44.898;8.602;2023-06-14T16:33:57;28.16;50.80
77052;SHT30;65980;44.898;8.602;2023-06-14T16:38:14;26.85;53.85
77052;SHT30;65980;44.898;8.602;2023-06-14T16:41:18;27.07;53.73
77052;SHT30;65980;44.898;8.602;2023-06-14T16:51:37;29.98;46.89
77052;SHT30;65980;44.898;8.602;2023-06-14T17:08:01;29.18;47.84
77052;SHT30;65980;44.898;8.602;2023-06-14T17:18:59;27.70;52.72
77052;SHT30;65980;44.898;8.602;2023-06-14T17:22:03;27.42;52.85
77052;SHT30;65980;44.898;8.602;2023-06-14T17:28:38;27.03;54.19
77052;SHT30;65980;44.898;8.602;2023-06-14T17:31:42;26.85;54.85
77052;SHT30;65980;44.898;8.602;2023-06-14T17:35:00;26.19;55.82
77052;SHT30;65980;44.898;8.602;2023-06-14T17:42:01;25.78;57.13
77052;SHT30;65980;44.898;8.602;2023-06-14T17:45:14;25.40;57.93
77052;SHT30;65980;44.898;8.602;2023-06-14T17:48:18;25.37;58.56
77052;SHT30;65980;44.898;8.602;2023-06-14T17:51:31;25.50;58.23
77052;SHT30;65980;44.898;8.602;2023-06-14T17:54:40;25.53;58.58
77052;SHT30;65980;44.898;8.602;2023-06-14T17:57:51;25.62;58.11
77052;SHT30;65980;44.898;8.602;2023-06-14T18:01:19;25.45;58.29
77052;SHT30;65980;44.898;8.602;2023-06-14T18:04:26;25.30;58.41
77052;SHT30;65980;44.898;8.602;2023-06-14T18:07:31;25.31;58.64
77052;SHT30;65980;44.898;8.602;2023-06-14T18:10:35;25.47;58.68
77052;SHT30;65980;44.898;8.602;2023-06-14T18:13:40;25.47;58.66
77052;SHT30;65980;44.898;8.602;2023-06-14T18:16:44;25.12;59.57
77052;SHT30;65980;44.898;8.602;2023-06-14T18:33:50;24.98;60.18
77052;SHT30;65980;44.898;8.602;2023-06-14T18:36:54;25.02;60.49
77052;SHT30;65980;44.898;8.602;2023-06-14T18:40:04;24.85;60.50
77052;SHT30;65980;44.898;8.602;2023-06-14T18:43:08;24.88;60.80
77052;SHT30;65980;44.898;8.602;2023-06-14T18:46:13;24.82;60.73
77052;SHT30;65980;44.898;8.602;2023-06-14T18:49:18;24.79;60.77
77052;SHT30;65980;44.898;8.602;2023-06-14T18:52:21;24.74;61.14
77052;SHT30;65980;44.898;8.602;2023-06-14T18:55:25;24.71;61.36
77052;SHT30;65980;44.898;8.602;2023-06-14T18:58:29;24.68;61.54
77052;SHT30;65980;44.898;8.602;2023-06-14T19:01:33;24.64;61.87
77052;SHT30;65980;44.898;8.602;2023-06-14T19:04:38;24.55;62.31
77052;SHT30;65980;44.898;8.602;2023-06-14T19:07:42;24.50;62.40
77052;SHT30;65980;44.898;8.602;2023-06-14T19:10:46;24.43;62.31
77052;SHT30;65980;44.898;8.602;2023-06-14T19:13:50;24.41;62.50
77052;SHT30;65980;44.898;8.602;2023-06-14T19:16:54;24.34;62.84
77052;SHT30;65980;44.898;8.602;2023-06-14T19:19:59;24.31;62.79
77052;SHT30;65980;44.898;8.602;2023-06-14T19:23:03;24.27;62.86
77052;SHT30;65980;44.898;8.602;2023-06-14T19:26:08;24.23;63.30
77052;SHT30;65980;44.898;8.602;2023-06-14T19:29:12;24.17;63.96
77052;SHT30;65980;44.898;8.602;2023-06-14T19:32:17;24.10;63.83
77052;SHT30;65980;44.898;8.602;2023-06-14T19:35:22;24.05;64.10
77052;SHT30;65980;44.898;8.602;2023-06-14T19:38:26;23.98;64.50
77052;SHT30;65980;44.898;8.602;2023-06-14T19:41:31;23.99;64.59
77052;SHT30;65980;44.898;8.602;2023-06-14T19:44:35;23.93;64.65
77052;SHT30;65980;44.898;8.602;2023-06-14T19:47:39;23.89;64.56
77052;SHT30;65980;44.898;8.602;2023-06-14T19:50:45;23.86;64.69
77052;SHT30;65980;44.898;8.602;2023-06-14T19:53:49;23.82;64.65
77052;SHT30;65980;44.898;8.602;2023-06-14T19:56:56;23.81;64.52
77052;SHT30;65980;44.898;8.602;2023-06-14T20:00:00;23.76;64.90
77052;SHT30;65980;44.898;8.602;2023-06-14T20:03:11;23.74;64.98
77052;SHT30;65980;44.898;8.602;2023-06-14T20:06:16;23.71;64.87
77052;SHT30;65980;44.898;8.602;2023-06-14T20:09:20;23.69;65.63
77052;SHT30;65980;44.898;8.602;2023-06-14T20:12:24;23.68;65.82
77052;SHT30;65980;44.898;8.602;2023-06-14T20:15:28;23.65;65.52
77052;SHT30;65980;44.898;8.602;2023-06-14T20:18:32;23.55;65.82
77052;SHT30;65980;44.898;8.602;2023-06-14T20:21:36;23.53;66.56
77052;SHT30;65980;44.898;8.602;2023-06-14T20:24:41;23.46;66.94
77052;SHT30;65980;44.898;8.602;2023-06-14T20:27:45;23.28;67.92
77052;SHT30;65980;44.898;8.602;2023-06-14T20:30:51;23.07;68.66
77052;SHT30;65980;44.898;8.602;2023-06-14T20:33:55;23.02;68.84
77052;SHT30;65980;44.898;8.602;2023-06-14T20:36:59;23.03;68.84
77052;SHT30;65980;44.898;8.602;2023-06-14T20:40:03;23.04;69.20
77052;SHT30;65980;44.898;8.602;2023-06-14T20:43:10;22.99;69.06
77052;SHT30;65980;44.898;8.602;2023-06-14T20:46:14;22.96;69.28
77052;SHT30;65980;44.898;8.602;2023-06-14T20:49:21;22.93;69.28
77052;SHT30;65980;44.898;8.602;2023-06-14T20:52:25;22.98;70.14
77052;SHT30;65980;44.898;8.602;2023-06-14T20:55:30;22.86;70.15
77052;SHT30;65980;44.898;8.602;2023-06-14T20:58:35;22.81;70.63
77052;SHT30;65980;44.898;8.602;2023-06-14T21:01:40;22.75;70.61
77052;SHT30;65980;44.898;8.602;2023-06-14T21:04:46;22.72;70.28
77052;SHT30;65980;44.898;8.602;2023-06-14T21:07:50;22.55;70.36
77052;SHT30;65980;44.898;8.602;2023-06-14T21:10:54;22.40;71.14
77052;SHT30;65980;44.898;8.602;2023-06-14T21:14:00;22.41;71.36
77052;SHT30;65980;44.898;8.602;2023-06-14T21:17:04;22.40;72.21
77052;SHT30;65980;44.898;8.602;2023-06-14T21:20:12;22.33;72.00
77052;SHT30;65980;44.898;8.602;2023-06-14T21:23:19;22.25;72.38
77052;SHT30;65980;44.898;8.602;2023-06-14T21:26:24;22.23;72.95
77052;SHT30;65980;44.898;8.602;2023-06-14T21:29:30;22.25;72.70
77052;SHT30;65980;44.898;8.602;2023-06-14T21:32:34;22.21;72.69
77052;SHT30;65980;44.898;8.602;2023-06-14T21:35:38;22.23;72.53
77052;SHT30;65980;44.898;8.602;2023-06-14T21:38:42;22.23;72.38
77052;SHT30;65980;44.898;8.602;2023-06-14T21:41:46;22.14;72.45
77052;SHT30;65980;44.898;8.602;2023-06-14T21:44:50;22.13;72.05
77052;SHT30;65980;44.898;8.602;2023-06-14T21:47:55;22.04;72.36